sensor_id;sensor_type;location;lat;lon;timestamp;temperature;humidity
36352;DHT22;22382;44.768;17.206;2023-01-13T00:01:15;2.60;99.90
36352;DHT22;22382;44.768;17.206;2023-01-13T00:03:43;2.50;99.90
36352;DHT22;22382;44.768;17.206;2023-01-13T00:06:16;2.60;99.90
36352;DHT22;22382;44.768;17.206;2023-01-13T00:08:43;2.60;99.90
36352;DHT22;22382;44.768;17.206;2023-01-13T00:11:10;2.50;99.90
36352;DHT22;22382;44.768;17.206;2023-01-13T00:13:37;2.40;99.90
36352;DHT22;22382;44.768;17.206;2023-01-13T00:16:09;2.30;99.90
36352;DHT22;22382;44.768;17.206;2023-01-13T00:18:37;2.30;99.90
36352;DHT22;22382;44.768;17.206;2023-01-13T00:21:06;2.30;99.90
36352;DHT22;22382;44.768;17.206;2023-01-13T00:23:34;2.40;99.90
36352;DHT22;22382;44.768;17.206;2023-01-13T00:26:08;2.60;99.90
36352;DHT22;22382;44.768;17.206;2023-01-13T00:28:35;2.60;99.90
36352;DHT22;22382;44.768;17.206;2023-01-13T00:31:12;2.50;99.90
36352;DHT22;22382;44.768;17.206;2023-01-13T00:33:39;2.50;99.90
36352;DHT22;22382;44.768;17.206;2023-01-13T00:36:08;2.50;99.90
36352;DHT22;22382;44.768;17.206;2023-01-13T00:38:36;2.40;99.90
36352;DHT22;22382;44.768;17.206;2023-01-13T00:41:06;2.30;99.90
36352;DHT22;22382;44.768;17.206;2023-01-13T00:43:35;2.00;99.90
36352;DHT22;22382;44.768;17.206;2023-01-13T00:46:04;1.90;99.90
36352;DHT22;22382;44.768;17.206;2023-01-13T00:48:32;2.00;99.90
36352;DHT22;22382;44.768;17.206;2023-01-13T00:51:00;2.10;99.90
36352;DHT22;22382;44.768;17.206;2023-01-13T00:53:33;2.00;99.90
36352;DHT22;22382;44.768;17.206;2023-01-13T00:58:47;2.00;99.90
36352;DHT22;22382;44.768;17.206;2023-01-13T01:01:20;2.10;99.90
36352;DHT22;22382;44.768;17.206;2023-01-13T01:03:48;2.10;99.90
36352;DHT22;22382;44.768;17.206;2023-01-13T01:06:18;2.10;99.90
36352;DHT22;22382;44.768;17.206;2023-01-13T01:08:46;2.20;99.90
36352;DHT22;22382;44.768;17.206;2023-01-13T01:11:18;2.10;99.90
36352;DHT22;22382;44.768;17.206;2023-01-13T01:13:47;2.10;99.90
36352;DHT22;22382;44.768;17.206;2023-01-13T01:16:16;2.20;99.90
36352;DHT22;22382;44.768;17.206;2023-01-13T01:18:46;2.20;99.90
36352;DHT22;22382;44.768;17.206;2023-01-13T01:21:13;2.20;99.90
36352;DHT22;22382;44.768;17.206;2023-01-13T01:23:41;2.20;99.90
36352;DHT22;22382;44.768;17.206;2023-01-13T01:26:15;2.20;99.90
36352;DHT22;22382;44.768;17.206;2023-01-13T01:28:42;2.20;99.90
36352;DHT22;22382;44.768;17.206;2023-01-13T01:31:15;2.30;99.90
36352;DHT22;22382;44.768;17.206;2023-01-13T01:33:42;2.20;99.90
36352;DHT22;22382;44.768;17.206;2023-01-13T01:36:11;2.20;99.90
36352;DHT22;22382;44.768;17.206;2023-01-13T01:38:38;2.20;99.90
36352;DHT22;22382;44.768;17.206;2023-01-13T01:41:06;2.10;99.90
36352;DHT22;22382;44.768;17.206;2023-01-13T01:43:51;2.00;99.90
36352;DHT22;22382;44.768;17.206;2023-01-13T01:46:40;2.00;99.90
36352;DHT22;22382;44.768;17.206;2023-01-13T01:49:30;2.10;99.90
36352;DHT22;22382;44.768;17.206;2023-01-13T02:00:05;1.80;99.90
36352;DHT22;22382;44.768;17.206;2023-01-13T02:02:33;1.70;99.90
36352;DHT22;22382;44.768;17.206;2023-01-13T02:05:01;1.80;99.90
36352;DHT22;22382;44.768;17.206;2023-01-13T02:07:31;1.70;99.90
36352;DHT22;22382;44.768;17.206;2023-01-13T02:10:04;1.60;99.90
36352;DHT22;22382;44.768;17.206;2023-01-13T02:12:32;1.60;99.90
36352;DHT22;22382;44.768;17.206;2023-01-13T02:15:12;1.70;99.90
36352;DHT22;22382;44.768;17.206;2023-01-13T02:24:15;1.70;99.90
36352;DHT22;22382;44.768;17.206;2023-01-13T02:30:03;1.70;99.90
36352;DHT22;22382;44.768;17.206;2023-01-13T02:38:02;1.80;99.90
36352;DHT22;22382;44.768;17.206;2023-01-13T02:40:43;1.90;99.90
36352;DHT22;22382;44.768;17.206;2023-01-13T02:43:35;1.90;99.90
36352;DHT22;22382;44.768;17.206;2023-01-13T02:49:23;1.90;99.90
36352;DHT22;22382;44.768;17.206;2023-01-13T02:51:53;1.90;99.90
36352;DHT22;22382;44.768;17.206;2023-01-13T02:54:26;1.90;99.90
36352;DHT22;22382;44.768;17.206;2023-01-13T02:56:55;1.80;99.90
36352;DHT22;22382;44.768;17.206;2023-01-13T02:59:23;2.00;99.90
36352;DHT22;22382;44.768;17.206;2023-01-13T03:01:58;2.10;99.90
36352;DHT22;22382;44.768;17.206;2023-01-13T03:04:53;2.10;99.90
36352;DHT22;22382;44.768;17.206;2023-01-13T03:24:19;1.90;99.90
36352;DHT22;22382;44.768;17.206;2023-01-13T03:29:49;1.70;99.90
36352;DHT22;22382;44.768;17.206;2023-01-13T03:32:09;1.70;99.90
36352;DHT22;22382;44.768;17.206;2023-01-13T03:37:39;1.70;99.90
36352;DHT22;22382;44.768;17.206;2023-01-13T03:40:16;1.70;99.90
36352;DHT22;22382;44.768;17.206;2023-01-13T03:42:47;1.80;99.90
36352;DHT22;22382;44.768;17.206;2023-01-13T03:45:38;1.80;99.90
36352;DHT22;22382;44.768;17.206;2023-01-13T03:48:10;1.90;99.90
36352;DHT22;22382;44.768;17.206;2023-01-13T03:50:40;1.90;99.90
36352;DHT22;22382;44.768;17.206;2023-01-13T03:53:14;1.90;99.90
36352;DHT22;22382;44.768;17.206;2023-01-13T03:55:46;1.90;99.90
36352;DHT22;22382;44.768;17.206;2023-01-13T03:58:23;1.80;99.90
36352;DHT22;22382;44.768;17.206;2023-01-13T04:01:09;1.80;99.90
36352;DHT22;22382;44.768;17.206;2023-01-13T04:09:50;1.80;99.90
36352;DHT22;22382;44.768;17.206;2023-01-13T04:14:48;1.70;99.90
36352;DHT22;22382;44.768;17.206;2023-01-13T04:17:17;1.60;99.90
36352;DHT22;22382;44.768;17.206;2023-01-13T04:19:44;1.70;99.90
36352;DHT22;22382;44.768;17.206;2023-01-13T04:22:11;1.60;99.90
36352;DHT22;22382;44.768;17.206;2023-01-13T04:24:38;1.70;99.90
36352;DHT22;22382;44.768;17.206;2023-01-13T04:27:05;1.70;99.90
36352;DHT22;22382;44.768;17.206;2023-01-13T04:29:33;1.70;99.90
36352;DHT22;22382;44.768;17.206;2023-01-13T04:32:00;1.60;99.90
36352;DHT22;22382;44.768;17.206;2023-01-13T04:34:27;1.70;99.90
36352;DHT22;22382;44.768;17.206;2023-01-13T04:36:57;1.70;99.90
36352;DHT22;22382;44.768;17.206;2023-01-13T04:39:24;1.60;99.90
36352;DHT22;22382;44.768;17.206;2023-01-13T04:41:51;1.40;99.90
36352;DHT22;22382;44.768;17.206;2023-01-13T04:44:24;1.20;99.90
36352;DHT22;22382;44.768;17.206;2023-01-13T04:46:52;1.10;99.90
36352;DHT22;22382;44.768;17.206;2023-01-13T04:49:19;1.10;99.90
36352;DHT22;22382;44.768;17.206;2023-01-13T04:51:47;1.10;99.90
36352;DHT22;22382;44.768;17.206;2023-01-13T04:54:14;1.30;99.90
36352;DHT22;22382;44.768;17.206;2023-01-13T04:56:42;1.30;99.90
36352;DHT22;22382;44.768;17.206;2023-01-13T04:59:10;1.20;99.90
36352;DHT22;22382;44.768;17.206;2023-01-13T05:01:38;1.10;99.90
36352;DHT22;22382;44.768;17.206;2023-01-13T05:04:06;1.00;99.90
36352;DHT22;22382;44.768;17.206;2023-01-13T05:06:35;0.90;99.90
36352;DHT22;22382;44.768;17.206;2023-01-13T05:09:02;0.90;99.90
36352;DHT22;22382;44.768;17.206;2023-01-13T05:11:29;1.00;99.90
36352;DHT22;22382;44.768;17.206;2023-01-13T05:14:15;1.10;99.90
36352;DHT22;22382;44.768;17.206;2023-01-13T05:17:01;1.20;99.90
36352;DHT22;22382;44.768;17.206;2023-01-13T05:19:34;1.20;99.90
36352;DHT22;22382;44.768;17.206;2023-01-13T05:22:02;1.20;99.90
36352;DHT22;22382;44.768;17.206;2023-01-13T05:24:48;1.20;99.90
36352;DHT22;22382;44.768;17.206;2023-01-13T05:27:34;1.20;99.90
36352;DHT22;22382;44.768;17.206;2023-01-13T05:30:01;1.30;99.90
36352;DHT22;22382;44.768;17.206;2023-01-13T05:32:28;1.40;99.90
36352;DHT22;22382;44.768;17.206;2023-01-13T05:34:55;1.40;99.90
36352;DHT22;22382;44.768;17.206;2023-01-13T05:37:23;1.40;99.90
36352;DHT22;22382;44.768;17.206;2023-01-13T05:39:51;1.40;99.90
36352;DHT22;22382;44.768;17.206;2023-01-13T05:42:37;1.50;99.90
36352;DHT22;22382;44.768;17.206;2023-01-13T05:45:23;1.50;99.90
36352;DHT22;22382;44.768;17.206;2023-01-13T05:47:50;1.50;99.90
36352;DHT22;22382;44.768;17.206;2023-01-13T05:50:18;1.60;99.90
36352;DHT22;22382;44.768;17.206;2023-01-13T05:52:45;1.50;99.90
36352;DHT22;22382;44.768;17.206;2023-01-13T05:55:12;1.40;99.90
36352;DHT22;22382;44.768;17.206;2023-01-13T05:57:39;1.50;99.90
36352;DHT22;22382;44.768;17.206;2023-01-13T06:00:07;1.60;99.90
36352;DHT22;22382;44.768;17.206;2023-01-13T06:02:34;1.60;99.90
36352;DHT22;22382;44.768;17.206;2023-01-13T06:05:01;1.60;99.90
36352;DHT22;22382;44.768;17.206;2023-01-13T06:07:28;1.50;99.90
36352;DHT22;22382;44.768;17.206;2023-01-13T06:09:56;1.40;99.90
36352;DHT22;22382;44.768;17.206;2023-01-13T06:12:23;1.30;99.90
36352;DHT22;22382;44.768;17.206;2023-01-13T06:14:50;1.30;99.90
36352;DHT22;22382;44.768;17.206;2023-01-13T06:17:17;1.20;99.90
36352;DHT22;22382;44.768;17.206;2023-01-13T06:19:44;1.10;99.90
36352;DHT22;22382;44.768;17.206;2023-01-13T06:22:22;1.10;99.90
36352;DHT22;22382;44.768;17.206;2023-01-13T06:24:50;1.10;99.90
36352;DHT22;22382;44.768;17.206;2023-01-13T06:27:20;1.20;99.90
36352;DHT22;22382;44.768;17.206;2023-01-13T06:29:48;1.20;99.90
36352;DHT22;22382;44.768;17.206;2023-01-13T06:32:25;1.20;99.90
36352;DHT22;22382;44.768;17.206;2023-01-13T06:35:06;1.20;99.90
36352;DHT22;22382;44.768;17.206;2023-01-13T06:37:34;1.20;99.90
36352;DHT22;22382;44.768;17.206;2023-01-13T06:40:05;1.40;99.90
36352;DHT22;22382;44.768;17.206;2023-01-13T06:42:34;1.60;99.90
36352;DHT22;22382;44.768;17.206;2023-01-13T06:45:22;1.50;99.90
36352;DHT22;22382;44.768;17.206;2023-01-13T06:47:49;1.40;99.90
36352;DHT22;22382;44.768;17.206;2023-01-13T06:50:17;1.30;99.90
36352;DHT22;22382;44.768;17.206;2023-01-13T06:52:44;1.20;99.90
36352;DHT22;22382;44.768;17.206;2023-01-13T06:55:12;1.20;99.90
36352;DHT22;22382;44.768;17.206;2023-01-13T07:00:19;1.30;99.90
36352;DHT22;22382;44.768;17.206;2023-01-13T07:02:46;1.40;99.90
36352;DHT22;22382;44.768;17.206;2023-01-13T07:05:14;1.40;99.90
36352;DHT22;22382;44.768;17.206;2023-01-13T07:07:42;1.40;99.90
36352;DHT22;22382;44.768;17.206;2023-01-13T07:10:11;1.50;99.90
36352;DHT22;22382;44.768;17.206;2023-01-13T07:12:40;1.60;99.90
36352;DHT22;22382;44.768;17.206;2023-01-13T07:15:26;1.70;99.90
36352;DHT22;22382;44.768;17.206;2023-01-13T07:17:53;1.80;99.90
36352;DHT22;22382;44.768;17.206;2023-01-13T07:20:20;1.90;99.90
36352;DHT22;22382;44.768;17.206;2023-01-13T07:22:52;2.00;99.90
36352;DHT22;22382;44.768;17.206;2023-01-13T07:25:20;2.00;99.90
36352;DHT22;22382;44.768;17.206;2023-01-13T07:27:47;2.20;99.90
36352;DHT22;22382;44.768;17.206;2023-01-13T07:30:15;2.20;99.90
36352;DHT22;22382;44.768;17.206;2023-01-13T07:32:42;2.40;99.90
36352;DHT22;22382;44.768;17.206;2023-01-13T07:35:09;2.40;99.90
36352;DHT22;22382;44.768;17.206;2023-01-13T07:37:37;2.50;99.90
36352;DHT22;22382;44.768;17.206;2023-01-13T07:40:06;2.60;99.90
36352;DHT22;22382;44.768;17.206;2023-01-13T07:42:36;2.70;99.90
36352;DHT22;22382;44.768;17.206;2023-01-13T07:45:22;3.00;99.90
36352;DHT22;22382;44.768;17.206;2023-01-13T07:47:50;3.20;99.90
36352;DHT22;22382;44.768;17.206;2023-01-13T07:50:19;3.10;99.90
36352;DHT22;22382;44.768;17.206;2023-01-13T07:52:47;3.20;99.90
36352;DHT22;22382;44.768;17.206;2023-01-13T07:55:14;3.30;99.90
36352;DHT22;22382;44.768;17.206;2023-01-13T07:57:41;3.40;99.90
36352;DHT22;22382;44.768;17.206;2023-01-13T08:00:09;3.50;99.90
36352;DHT22;22382;44.768;17.206;2023-01-13T08:02:38;3.70;99.90
36352;DHT22;22382;44.768;17.206;2023-01-13T08:05:06;3.60;99.90
36352;DHT22;22382;44.768;17.206;2023-01-13T08:07:34;3.70;99.90
36352;DHT22;22382;44.768;17.206;2023-01-13T08:10:02;3.90;99.90
36352;DHT22;22382;44.768;17.206;2023-01-13T08:12:30;3.90;99.90
36352;DHT22;22382;44.768;17.206;2023-01-13T08:15:30;3.80;99.90
36352;DHT22;22382;44.768;17.206;2023-01-13T08:17:58;3.80;99.90
36352;DHT22;22382;44.768;17.206;2023-01-13T08:20:25;3.90;99.90
36352;DHT22;22382;44.768;17.206;2023-01-13T08:22:56;3.80;99.90
36352;DHT22;22382;44.768;17.206;2023-01-13T08:25:25;3.80;99.90
36352;DHT22;22382;44.768;17.206;2023-01-13T08:27:53;3.50;99.90
36352;DHT22;22382;44.768;17.206;2023-01-13T08:30:21;3.50;99.90
36352;DHT22;22382;44.768;17.206;2023-01-13T08:32:49;3.50;99.90
36352;DHT22;22382;44.768;17.206;2023-01-13T08:35:17;3.60;99.90
36352;DHT22;22382;44.768;17.206;2023-01-13T08:37:45;3.50;99.90
36352;DHT22;22382;44.768;17.206;2023-01-13T08:40:15;3.50;99.90
36352;DHT22;22382;44.768;17.206;2023-01-13T08:42:42;3.50;99.90
36352;DHT22;22382;44.768;17.206;2023-01-13T08:45:10;3.60;99.90
36352;DHT22;22382;44.768;17.206;2023-01-13T08:47:39;3.70;99.90
36352;DHT22;22382;44.768;17.206;2023-01-13T08:50:07;3.70;99.90
36352;DHT22;22382;44.768;17.206;2023-01-13T08:52:34;3.70;99.90
36352;DHT22;22382;44.768;17.206;2023-01-13T08:55:02;3.90;99.90
36352;DHT22;22382;44.768;17.206;2023-01-13T08:57:29;4.00;99.90
36352;DHT22;22382;44.768;17.206;2023-01-13T08:59:57;4.10;99.90
36352;DHT22;22382;44.768;17.206;2023-01-13T09:02:25;4.10;99.90
36352;DHT22;22382;44.768;17.206;2023-01-13T09:04:52;4.20;99.90
36352;DHT22;22382;44.768;17.206;2023-01-13T09:07:20;4.30;99.90
36352;DHT22;22382;44.768;17.206;2023-01-13T09:09:47;4.40;99.90
36352;DHT22;22382;44.768;17.206;2023-01-13T09:12:15;4.40;99.90
36352;DHT22;22382;44.768;17.206;2023-01-13T09:15:02;4.50;99.90
36352;DHT22;22382;44.768;17.206;2023-01-13T09:17:30;4.40;99.90
36352;DHT22;22382;44.768;17.206;2023-01-13T09:19:57;4.60;99.90
36352;DHT22;22382;44.768;17.206;2023-01-13T09:22:24;4.70;99.90
36352;DHT22;22382;44.768;17.206;2023-01-13T09:24:54;4.70;99.90
36352;DHT22;22382;44.768;17.206;2023-01-13T09:27:21;4.90;99.90
36352;DHT22;22382;44.768;17.206;2023-01-13T09:29:49;5.30;99.90
36352;DHT22;22382;44.768;17.206;2023-01-13T09:32:16;5.50;99.90
36352;DHT22;22382;44.768;17.206;2023-01-13T09:34:44;5.80;99.90
36352;DHT22;22382;44.768;17.206;2023-01-13T09:37:27;5.90;99.90
36352;DHT22;22382;44.768;17.206;2023-01-13T09:39:54;6.10;99.90
36352;DHT22;22382;44.768;17.206;2023-01-13T09:45:48;6.60;99.90
36352;DHT22;22382;44.768;17.206;2023-01-13T09:48:18;6.50;99.90
36352;DHT22;22382;44.768;17.206;2023-01-13T09:51:02;7.00;99.90
36352;DHT22;22382;44.768;17.206;2023-01-13T09:53:47;7.10;99.90
36352;DHT22;22382;44.768;17.206;2023-01-13T09:56:15;7.20;99.90
36352;DHT22;22382;44.768;17.206;2023-01-13T09:58:44;7.60;99.90
36352;DHT22;22382;44.768;17.206;2023-01-13T10:03:50;8.00;99.90
36352;DHT22;22382;44.768;17.206;2023-01-13T10:08:54;8.80;99.90
36352;DHT22;22382;44.768;17.206;2023-01-13T10:11:26;9.00;99.90
36352;DHT22;22382;44.768;17.206;2023-01-13T10:14:37;8.90;99.90
36352;DHT22;22382;44.768;17.206;2023-01-13T10:22:44;9.50;99.90
36352;DHT22;22382;44.768;17.206;2023-01-13T10:28:01;9.90;98.30
36352;DHT22;22382;44.768;17.206;2023-01-13T10:30:36;10.00;98.10
36352;DHT22;22382;44.768;17.206;2023-01-13T10:38:37;10.10;98.50
36352;DHT22;22382;44.768;17.206;2023-01-13T10:44:00;10.10;92.20
36352;DHT22;22382;44.768;17.206;2023-01-13T10:46:29;10.10;97.60
36352;DHT22;22382;44.768;17.206;2023-01-13T10:48:59;10.40;98.20
36352;DHT22;22382;44.768;17.206;2023-01-13T10:56:43;10.70;96.30
36352;DHT22;22382;44.768;17.206;2023-01-13T10:59:21;10.60;92.80
36352;DHT22;22382;44.768;17.206;2023-01-13T11:02:02;10.70;94.20
36352;DHT22;22382;44.768;17.206;2023-01-13T11:04:57;11.00;92.90
36352;DHT22;22382;44.768;17.206;2023-01-13T11:07:49;11.40;92.20
36352;DHT22;22382;44.768;17.206;2023-01-13T11:10:25;11.60;90.50
36352;DHT22;22382;44.768;17.206;2023-01-13T11:15:59;12.10;88.00
36352;DHT22;22382;44.768;17.206;2023-01-13T11:21:49;12.10;75.60
36352;DHT22;22382;44.768;17.206;2023-01-13T11:27:12;12.20;76.80
36352;DHT22;22382;44.768;17.206;2023-01-13T11:35:29;11.40;85.90
36352;DHT22;22382;44.768;17.206;2023-01-13T11:38:03;11.60;90.50
36352;DHT22;22382;44.768;17.206;2023-01-13T11:40:36;11.90;85.00
36352;DHT22;22382;44.768;17.206;2023-01-13T11:45:57;11.90;77.10
36352;DHT22;22382;44.768;17.206;2023-01-13T11:48:31;11.80;78.50
36352;DHT22;22382;44.768;17.206;2023-01-13T12:01:40;12.30;74.80
36352;DHT22;22382;44.768;17.206;2023-01-13T12:07:43;12.40;71.90
36352;DHT22;22382;44.768;17.206;2023-01-13T12:19:25;12.40;71.50
36352;DHT22;22382;44.768;17.206;2023-01-13T12:22:11;12.80;69.90
36352;DHT22;22382;44.768;17.206;2023-01-13T12:27:14;12.70;71.10
36352;DHT22;22382;44.768;17.206;2023-01-13T12:29:45;12.80;70.80
36352;DHT22;22382;44.768;17.206;2023-01-13T12:32:16;12.70;71.30
36352;DHT22;22382;44.768;17.206;2023-01-13T12:37:38;12.20;70.60
36352;DHT22;22382;44.768;17.206;2023-01-13T12:40:18;12.20;72.80
36352;DHT22;22382;44.768;17.206;2023-01-13T12:45:36;12.00;73.90
36352;DHT22;22382;44.768;17.206;2023-01-13T12:48:04;11.90;75.50
36352;DHT22;22382;44.768;17.206;2023-01-13T12:53:28;11.80;74.20
36352;DHT22;22382;44.768;17.206;2023-01-13T12:56:24;11.80;76.10
36352;DHT22;22382;44.768;17.206;2023-01-13T13:01:46;12.00;73.10
36352;DHT22;22382;44.768;17.206;2023-01-13T13:10:06;12.10;78.00
36352;DHT22;22382;44.768;17.206;2023-01-13T13:15:28;12.30;78.20
36352;DHT22;22382;44.768;17.206;2023-01-13T13:21:00;12.40;78.60
36352;DHT22;22382;44.768;17.206;2023-01-13T13:39:43;12.30;80.90
36352;DHT22;22382;44.768;17.206;2023-01-13T13:42:37;12.20;79.00
36352;DHT22;22382;44.768;17.206;2023-01-13T13:45:26;12.20;78.60
36352;DHT22;22382;44.768;17.206;2023-01-13T13:48:37;12.10;79.70
36352;DHT22;22382;44.768;17.206;2023-01-13T13:51:27;12.30;78.50
36352;DHT22;22382;44.768;17.206;2023-01-13T13:53:58;12.30;78.60
36352;DHT22;22382;44.768;17.206;2023-01-13T13:56:26;12.20;80.30
36352;DHT22;22382;44.768;17.206;2023-01-13T13:58:54;12.40;80.90
36352;DHT22;22382;44.768;17.206;2023-01-13T14:01:25;12.50;80.20
36352;DHT22;22382;44.768;17.206;2023-01-13T14:06:29;12.50;79.40
36352;DHT22;22382;44.768;17.206;2023-01-13T14:08:58;12.50;79.20
36352;DHT22;22382;44.768;17.206;2023-01-13T14:11:27;12.40;81.10
36352;DHT22;22382;44.768;17.206;2023-01-13T14:14:04;12.10;83.00
36352;DHT22;22382;44.768;17.206;2023-01-13T14:16:33;11.90;83.90
36352;DHT22;22382;44.768;17.206;2023-01-13T14:19:02;11.80;87.80
36352;DHT22;22382;44.768;17.206;2023-01-13T14:21:30;11.70;88.70
36352;DHT22;22382;44.768;17.206;2023-01-13T14:24:01;11.70;90.60
36352;DHT22;22382;44.768;17.206;2023-01-13T14:26:37;11.70;89.60
36352;DHT22;22382;44.768;17.206;2023-01-13T14:29:05;11.70;89.30
36352;DHT22;22382;44.768;17.206;2023-01-13T14:31:33;11.60;90.20
36352;DHT22;22382;44.768;17.206;2023-01-13T14:34:02;11.50;89.30
36352;DHT22;22382;44.768;17.206;2023-01-13T14:36:49;11.40;91.30
36352;DHT22;22382;44.768;17.206;2023-01-13T14:41:45;11.20;91.50
36352;DHT22;22382;44.768;17.206;2023-01-13T14:46:46;11.10;91.40
36352;DHT22;22382;44.768;17.206;2023-01-13T14:49:48;11.00;92.30
36352;DHT22;22382;44.768;17.206;2023-01-13T14:52:22;11.00;93.00
36352;DHT22;22382;44.768;17.206;2023-01-13T14:57:47;10.80;92.30
36352;DHT22;22382;44.768;17.206;2023-01-13T15:02:42;10.70;92.30
36352;DHT22;22382;44.768;17.206;2023-01-13T15:13:23;10.50;96.70
36352;DHT22;22382;44.768;17.206;2023-01-13T15:15:56;10.40;97.20
36352;DHT22;22382;44.768;17.206;2023-01-13T15:18:24;10.30;99.90
36352;DHT22;22382;44.768;17.206;2023-01-13T15:20:52;10.20;99.90
36352;DHT22;22382;44.768;17.206;2023-01-13T15:23:19;10.10;99.90
36352;DHT22;22382;44.768;17.206;2023-01-13T15:25:47;10.00;99.90
36352;DHT22;22382;44.768;17.206;2023-01-13T15:28:21;9.90;99.90
36352;DHT22;22382;44.768;17.206;2023-01-13T15:30:50;9.80;99.90
36352;DHT22;22382;44.768;17.206;2023-01-13T15:33:18;9.70;99.90
36352;DHT22;22382;44.768;17.206;2023-01-13T15:35:47;9.60;99.90
36352;DHT22;22382;44.768;17.206;2023-01-13T15:38:19;9.50;99.90
36352;DHT22;22382;44.768;17.206;2023-01-13T15:40:48;9.40;99.90
36352;DHT22;22382;44.768;17.206;2023-01-13T15:43:22;9.40;99.90
36352;DHT22;22382;44.768;17.206;2023-01-13T15:46:15;9.30;99.90
36352;DHT22;22382;44.768;17.206;2023-01-13T15:48:45;9.30;99.90
36352;DHT22;22382;44.768;17.206;2023-01-13T15:51:20;9.20;99.90
36352;DHT22;22382;44.768;17.206;2023-01-13T15:53:47;9.20;99.90
36352;DHT22;22382;44.768;17.206;2023-01-13T15:56:23;9.20;99.90
36352;DHT22;22382;44.768;17.206;2023-01-13T15:58:51;9.20;99.90
36352;DHT22;22382;44.768;17.206;2023-01-13T16:01:19;9.10;99.90
36352;DHT22;22382;44.768;17.206;2023-01-13T16:03:46;9.00;99.90
36352;DHT22;22382;44.768;17.206;2023-01-13T16:06:19;8.90;99.90
36352;DHT22;22382;44.768;17.206;2023-01-13T16:08:46;8.90;99.90
36352;DHT22;22382;44.768;17.206;2023-01-13T16:11:13;8.90;99.90
36352;DHT22;22382;44.768;17.206;2023-01-13T16:13:41;8.80;99.90
36352;DHT22;22382;44.768;17.206;2023-01-13T16:16:20;8.70;99.90
36352;DHT22;22382;44.768;17.206;2023-01-13T16:18:48;8.70;99.90
36352;DHT22;22382;44.768;17.206;2023-01-13T16:21:18;8.70;99.90
36352;DHT22;22382;44.768;17.206;2023-01-13T16:23:47;8.70;99.90
36352;DHT22;22382;44.768;17.206;2023-01-13T16:26:25;8.60;99.90
36352;DHT22;22382;44.768;17.206;2023-01-13T16:28:54;8.60;99.90
36352;DHT22;22382;44.768;17.206;2023-01-13T16:31:31;8.50;99.90
36352;DHT22;22382;44.768;17.206;2023-01-13T16:33:59;8.50;99.90
36352;DHT22;22382;44.768;17.206;2023-01-13T16:36:33;8.50;99.90
36352;DHT22;22382;44.768;17.206;2023-01-13T16:39:03;8.50;99.90
36352;DHT22;22382;44.768;17.206;2023-01-13T16:41:32;8.50;99.90
36352;DHT22;22382;44.768;17.206;2023-01-13T16:44:00;8.50;99.90
36352;DHT22;22382;44.768;17.206;2023-01-13T16:46:32;8.50;99.90
36352;DHT22;22382;44.768;17.206;2023-01-13T16:49:04;8.50;99.90
36352;DHT22;22382;44.768;17.206;2023-01-13T16:51:32;8.40;99.90
36352;DHT22;22382;44.768;17.206;2023-01-13T16:54:00;8.40;99.90
36352;DHT22;22382;44.768;17.206;2023-01-13T16:56:29;8.40;99.90
36352;DHT22;22382;44.768;17.206;2023-01-13T16:58:59;8.40;99.90
36352;DHT22;22382;44.768;17.206;2023-01-13T17:01:34;8.40;99.90
36352;DHT22;22382;44.768;17.206;2023-01-13T17:04:04;8.30;99.90
36352;DHT22;22382;44.768;17.206;2023-01-13T17:06:39;8.30;99.90
36352;DHT22;22382;44.768;17.206;2023-01-13T17:09:14;8.30;99.90
36352;DHT22;22382;44.768;17.206;2023-01-13T17:11:42;8.30;99.90
36352;DHT22;22382;44.768;17.206;2023-01-13T17:14:09;8.20;99.90
36352;DHT22;22382;44.768;17.206;2023-01-13T17:16:46;8.20;99.90
36352;DHT22;22382;44.768;17.206;2023-01-13T17:19:13;8.20;99.90
36352;DHT22;22382;44.768;17.206;2023-01-13T17:21:40;8.20;99.90
36352;DHT22;22382;44.768;17.206;2023-01-13T17:24:08;8.10;99.90
36352;DHT22;22382;44.768;17.206;2023-01-13T17:26:40;8.10;99.90
36352;DHT22;22382;44.768;17.206;2023-01-13T17:29:16;8.10;99.90
36352;DHT22;22382;44.768;17.206;2023-01-13T17:31:43;8.10;99.90
36352;DHT22;22382;44.768;17.206;2023-01-13T17:34:11;8.10;99.90
36352;DHT22;22382;44.768;17.206;2023-01-13T17:36:39;8.00;99.90
36352;DHT22;22382;44.768;17.206;2023-01-13T17:39:06;8.00;99.90
36352;DHT22;22382;44.768;17.206;2023-01-13T17:41:33;8.00;99.90
36352;DHT22;22382;44.768;17.206;2023-01-13T17:44:00;8.00;99.90
36352;DHT22;22382;44.768;17.206;2023-01-13T17:46:27;8.00;99.90
36352;DHT22;22382;44.768;17.206;2023-01-13T17:48:54;8.00;99.90
36352;DHT22;22382;44.768;17.206;2023-01-13T17:51:21;8.00;99.90
36352;DHT22;22382;44.768;17.206;2023-01-13T17:53:52;7.90;99.90
36352;DHT22;22382;44.768;17.206;2023-01-13T17:56:19;7.90;99.90
36352;DHT22;22382;44.768;17.206;2023-01-13T17:58:46;7.80;99.90
36352;DHT22;22382;44.768;17.206;2023-01-13T18:01:16;7.80;99.90
36352;DHT22;22382;44.768;17.206;2023-01-13T18:03:44;7.80;99.90
36352;DHT22;22382;44.768;17.206;2023-01-13T18:06:17;7.80;99.90
36352;DHT22;22382;44.768;17.206;2023-01-13T18:08:45;7.70;99.90
36352;DHT22;22382;44.768;17.206;2023-01-13T18:11:13;7.70;99.90
36352;DHT22;22382;44.768;17.206;2023-01-13T18:13:47;7.70;99.90
36352;DHT22;22382;44.768;17.206;2023-01-13T18:16:17;7.70;99.90
36352;DHT22;22382;44.768;17.206;2023-01-13T18:18:46;7.70;99.90
36352;DHT22;22382;44.768;17.206;2023-01-13T18:21:25;7.70;99.90
36352;DHT22;22382;44.768;17.206;2023-01-13T18:24:15;7.70;99.90
36352;DHT22;22382;44.768;17.206;2023-01-13T18:27:01;7.70;99.90
36352;DHT22;22382;44.768;17.206;2023-01-13T18:29:52;7.60;99.90
36352;DHT22;22382;44.768;17.206;2023-01-13T18:32:20;7.60;99.90
36352;DHT22;22382;44.768;17.206;2023-01-13T18:34:47;7.60;99.90
36352;DHT22;22382;44.768;17.206;2023-01-13T18:37:19;7.60;99.90
36352;DHT22;22382;44.768;17.206;2023-01-13T18:39:47;7.60;99.90
36352;DHT22;22382;44.768;17.206;2023-01-13T18:42:14;7.60;99.90
36352;DHT22;22382;44.768;17.206;2023-01-13T18:44:59;7.50;99.90
36352;DHT22;22382;44.768;17.206;2023-01-13T18:47:29;7.50;99.90
36352;DHT22;22382;44.768;17.206;2023-01-13T18:49:56;7.50;99.90
36352;DHT22;22382;44.768;17.206;2023-01-13T18:52:24;7.50;99.90
36352;DHT22;22382;44.768;17.206;2023-01-13T18:54:52;7.50;99.90
36352;DHT22;22382;44.768;17.206;2023-01-13T18:57:19;7.40;99.90
36352;DHT22;22382;44.768;17.206;2023-01-13T18:59:47;7.50;99.90
36352;DHT22;22382;44.768;17.206;2023-01-13T19:02:16;7.50;99.90
36352;DHT22;22382;44.768;17.206;2023-01-13T19:04:44;7.50;99.90
36352;DHT22;22382;44.768;17.206;2023-01-13T19:07:11;7.50;99.90
36352;DHT22;22382;44.768;17.206;2023-01-13T19:09:42;7.50;99.90
36352;DHT22;22382;44.768;17.206;2023-01-13T19:12:09;7.50;99.90